sensor_id;sensor_type;location;lat;lon;timestamp;pressure;altitude;pressure_sealevel;temperature
82297;BMP280;71899;51.992;8.648;2024-01-06T09:47:22;99473.22;;;5.14
82297;BMP280;71899;51.992;8.648;2024-01-06T10:16:19;99509.03;;;5.23
82297;BMP280;71899;51.992;8.648;2024-01-06T10:18:45;99511.53;;;5.25
82297;BMP280;71899;51.992;8.648;2024-01-06T10:21:12;99491.00;;;5.05
82297;BMP280;71899;51.992;8.648;2024-01-06T10:23:39;99504.44;;;5.28
82297;BMP280;71899;51.992;8.648;2024-01-06T10:26:15;99503.25;;;5.18
82297;BMP280;71899;51.992;8.648;2024-01-06T10:33:02;99508.38;;;5.35
82297;BMP280;71899;51.992;8.648;2024-01-06T11:00:28;99524.13;;;5.48
82297;BMP280;71899;51.992;8.648;2024-01-06T13:52:17;99612.91;;;6.64
82297;BMP280;71899;51.992;8.648;2024-01-06T13:54:43;99616.09;;;6.54
82297;BMP280;71899;51.992;8.648;2024-01-06T13:57:10;99614.66;;;6.64
82297;BMP280;71899;51.992;8.648;2024-01-06T13:59:36;99627.56;;;6.81
82297;BMP280;71899;51.992;8.648;2024-01-06T14:02:06;99623.41;;;6.92
82297;BMP280;71899;51.992;8.648;2024-01-06T14:04:33;99610.34;;;6.94
82297;BMP280;71899;51.992;8.648;2024-01-06T14:06:58;99629.50;;;7.07
82297;BMP280;71899;51.992;8.648;2024-01-06T14:09:27;99633.91;;;6.91
82297;BMP280;71899;51.992;8.648;2024-01-06T14:11:53;99625.34;;;6.89
82297;BMP280;71899;51.992;8.648;2024-01-06T14:14:20;99633.06;;;6.90
82297;BMP280;71899;51.992;8.648;2024-01-06T14:16:46;99614.19;;;6.73
82297;BMP280;71899;51.992;8.648;2024-01-06T14:19:13;99634.84;;;6.90
82297;BMP280;71899;51.992;8.648;2024-01-06T14:21:39;99628.47;;;6.95
82297;BMP280;71899;51.992;8.648;2024-01-06T14:24:15;99643.31;;;6.78
82297;BMP280;71899;51.992;8.648;2024-01-06T14:26:44;99642.28;;;6.35
82297;BMP280;71899;51.992;8.648;2024-01-06T14:29:09;99654.56;;;6.63
82297;BMP280;71899;51.992;8.648;2024-01-06T14:31:37;99642.56;;;6.76
82297;BMP280;71899;51.992;8.648;2024-01-06T14:34:03;99645.59;;;6.84
82297;BMP280;71899;51.992;8.648;2024-01-06T14:36:56;99661.75;;;6.58
82297;BMP280;71899;51.992;8.648;2024-01-06T14:39:22;99648.94;;;6.55
82297;BMP280;71899;51.992;8.648;2024-01-06T14:41:48;99668.97;;;6.68
82297;BMP280;71899;51.992;8.648;2024-01-06T14:44:17;99657.00;;;6.66
82297;BMP280;71899;51.992;8.648;2024-01-06T14:46:52;99670.06;;;6.64
82297;BMP280;71899;51.992;8.648;2024-01-06T14:49:18;99655.47;;;6.62
82297;BMP280;71899;51.992;8.648;2024-01-06T14:51:44;99664.97;;;6.63
82297;BMP280;71899;51.992;8.648;2024-01-06T14:54:11;99671.91;;;6.62
82297;BMP280;71899;51.992;8.648;2024-01-06T14:56:45;99675.00;;;6.53
82297;BMP280;71899;51.992;8.648;2024-01-06T14:59:43;99666.97;;;6.58
82297;BMP280;71899;51.992;8.648;2024-01-06T15:02:09;99670.06;;;6.80
82297;BMP280;71899;51.992;8.648;2024-01-06T15:04:37;99687.22;;;6.82
82297;BMP280;71899;51.992;8.648;2024-01-06T15:10:00;99689.59;;;6.56
82297;BMP280;71899;51.992;8.648;2024-01-06T15:12:27;99700.19;;;6.20
82297;BMP280;71899;51.992;8.648;2024-01-06T15:14:53;99693.84;;;5.58
82297;BMP280;71899;51.992;8.648;2024-01-06T15:17:19;99705.63;;;5.64
82297;BMP280;71899;51.992;8.648;2024-01-06T15:20:17;99706.81;;;5.58
82297;BMP280;71899;51.992;8.648;2024-01-06T15:22:47;99699.50;;;5.49
82297;BMP280;71899;51.992;8.648;2024-01-06T15:25:13;99716.50;;;5.37
82297;BMP280;71899;51.992;8.648;2024-01-06T15:27:45;99709.34;;;5.60
82297;BMP280;71899;51.992;8.648;2024-01-06T15:30:15;99727.09;;;5.84
82297;BMP280;71899;51.992;8.648;2024-01-06T15:36:50;99724.97;;;5.41
82297;BMP280;71899;51.992;8.648;2024-01-06T15:40:41;99726.84;;;5.20
82297;BMP280;71899;51.992;8.648;2024-01-06T15:44:18;99748.59;;;4.99
82297;BMP280;71899;51.992;8.648;2024-01-06T15:48:05;99740.72;;;5.00
82297;BMP280;71899;51.992;8.648;2024-01-06T15:51:35;99759.53;;;5.23
82297;BMP280;71899;51.992;8.648;2024-01-06T16:05:17;99754.25;;;5.77
82297;BMP280;71899;51.992;8.648;2024-01-06T16:12:27;99776.59;;;5.63
82297;BMP280;71899;51.992;8.648;2024-01-06T16:19:45;99785.66;;;5.18
82297;BMP280;71899;51.992;8.648;2024-01-06T16:27:20;99794.78;;;4.89
82297;BMP280;71899;51.992;8.648;2024-01-06T16:30:46;99808.53;;;4.91
82297;BMP280;71899;51.992;8.648;2024-01-06T16:33:21;99811.38;;;4.67
82297;BMP280;71899;51.992;8.648;2024-01-06T16:36:01;99813.84;;;4.49
82297;BMP280;71899;51.992;8.648;2024-01-06T16:39:30;99819.44;;;4.40
82297;BMP280;71899;51.992;8.648;2024-01-06T16:42:33;99827.63;;;4.31
82297;BMP280;71899;51.992;8.648;2024-01-06T16:45:22;99830.19;;;3.71
82297;BMP280;71899;51.992;8.648;2024-01-06T16:47:58;99821.16;;;3.81
82297;BMP280;71899;51.992;8.648;2024-01-06T16:50:56;99806.78;;;3.94
82297;BMP280;71899;51.992;8.648;2024-01-06T16:53:33;99818.81;;;4.15
82297;BMP280;71899;51.992;8.648;2024-01-06T16:55:59;99822.75;;;4.44
82297;BMP280;71899;51.992;8.648;2024-01-06T16:58:24;99815.00;;;4.24
82297;BMP280;71899;51.992;8.648;2024-01-06T17:00:51;99823.47;;;4.07
82297;BMP280;71899;51.992;8.648;2024-01-06T17:03:28;99830.50;;;3.83
82297;BMP280;71899;51.992;8.648;2024-01-06T17:06:33;99846.59;;;3.90
82297;BMP280;71899;51.992;8.648;2024-01-06T17:09:26;99833.09;;;4.04
82297;BMP280;71899;51.992;8.648;2024-01-06T17:12:29;99851.91;;;3.87
82297;BMP280;71899;51.992;8.648;2024-01-06T17:15:32;99838.69;;;3.73
82297;BMP280;71899;51.992;8.648;2024-01-06T17:18:03;99850.53;;;3.78
82297;BMP280;71899;51.992;8.648;2024-01-06T17:20:59;99843.25;;;3.88
82297;BMP280;71899;51.992;8.648;2024-01-06T17:23:47;99848.19;;;3.72
82297;BMP280;71899;51.992;8.648;2024-01-06T17:26:34;99868.31;;;3.86
82297;BMP280;71899;51.992;8.648;2024-01-06T17:29:16;99860.78;;;3.81
82297;BMP280;71899;51.992;8.648;2024-01-06T17:31:49;99863.16;;;3.86
82297;BMP280;71899;51.992;8.648;2024-01-06T17:34:45;99875.00;;;4.12
82297;BMP280;71899;51.992;8.648;2024-01-06T17:40:43;99867.13;;;4.15
82297;BMP280;71899;51.992;8.648;2024-01-06T17:43:28;99874.69;;;4.19
82297;BMP280;71899;51.992;8.648;2024-01-06T17:46:06;99865.56;;;4.11
82297;BMP280;71899;51.992;8.648;2024-01-06T17:55:57;99887.19;;;4.10
82297;BMP280;71899;51.992;8.648;2024-01-06T18:05:43;99907.78;;;3.69
82297;BMP280;71899;51.992;8.648;2024-01-06T18:08:25;99890.34;;;3.74
82297;BMP280;71899;51.992;8.648;2024-01-06T18:11:10;99900.19;;;3.86
82297;BMP280;71899;51.992;8.648;2024-01-06T18:14:41;99914.72;;;3.89
82297;BMP280;71899;51.992;8.648;2024-01-06T18:18:21;99915.44;;;3.92
82297;BMP280;71899;51.992;8.648;2024-01-06T18:21:37;99921.84;;;4.26
82297;BMP280;71899;51.992;8.648;2024-01-06T18:24:52;99906.63;;;4.18
82297;BMP280;71899;51.992;8.648;2024-01-06T18:31:16;99913.66;;;3.94
82297;BMP280;71899;51.992;8.648;2024-01-06T18:33:50;99912.88;;;3.92
82297;BMP280;71899;51.992;8.648;2024-01-06T18:36:16;99908.19;;;3.80
82297;BMP280;71899;51.992;8.648;2024-01-06T18:42:07;99914.13;;;4.04
82297;BMP280;71899;51.992;8.648;2024-01-06T18:45:06;99930.19;;;4.32
82297;BMP280;71899;51.992;8.648;2024-01-06T18:51:45;99925.13;;;4.09
82297;BMP280;71899;51.992;8.648;2024-01-06T18:54:48;99937.66;;;3.76
82297;BMP280;71899;51.992;8.648;2024-01-06T18:57:54;99943.34;;;4.28
82297;BMP280;71899;51.992;8.648;2024-01-06T20:20:03;100016.41;;;3.44
82297;BMP280;71899;51.992;8.648;2024-01-06T20:29:17;100039.25;;;3.32
82297;BMP280;71899;51.992;8.648;2024-01-06T20:32:07;100038.88;;;3.66
82297;BMP280;71899;51.992;8.648;2024-01-06T20:34:32;100035.69;;;3.59
82297;BMP280;71899;51.992;8.648;2024-01-06T20:36:58;100039.63;;;3.46
82297;BMP280;71899;51.992;8.648;2024-01-06T20:39:23;100040.47;;;3.22
82297;BMP280;71899;51.992;8.648;2024-01-06T20:41:49;100048.94;;;3.27
82297;BMP280;71899;51.992;8.648;2024-01-06T20:44:16;100051.75;;;3.21
82297;BMP280;71899;51.992;8.648;2024-01-06T20:46:41;100052.03;;;3.12
82297;BMP280;71899;51.992;8.648;2024-01-06T20:49:08;100053.50;;;2.94
82297;BMP280;71899;51.992;8.648;2024-01-06T20:51:34;100053.22;;;3.03
82297;BMP280;71899;51.992;8.648;2024-01-06T20:54:00;100058.16;;;3.09
82297;BMP280;71899;51.992;8.648;2024-01-06T20:56:26;100055.94;;;3.23
82297;BMP280;71899;51.992;8.648;2024-01-06T20:58:51;100058.09;;;2.86
82297;BMP280;71899;51.992;8.648;2024-01-06T21:01:17;100063.91;;;2.92
82297;BMP280;71899;51.992;8.648;2024-01-06T21:03:42;100062.44;;;3.10
82297;BMP280;71899;51.992;8.648;2024-01-06T21:06:09;100068.53;;;3.32
82297;BMP280;71899;51.992;8.648;2024-01-06T21:08:35;100059.41;;;2.97
82297;BMP280;71899;51.992;8.648;2024-01-06T21:11:01;100060.47;;;2.92
82297;BMP280;71899;51.992;8.648;2024-01-06T21:13:26;100063.44;;;3.06
82297;BMP280;71899;51.992;8.648;2024-01-06T21:15:52;100064.81;;;3.16
82297;BMP280;71899;51.992;8.648;2024-01-06T21:18:17;100064.91;;;2.88
82297;BMP280;71899;51.992;8.648;2024-01-06T21:20:43;100069.41;;;2.82
82297;BMP280;71899;51.992;8.648;2024-01-06T21:23:08;100072.41;;;2.70
82297;BMP280;71899;51.992;8.648;2024-01-06T21:25:34;100082.53;;;2.76
82297;BMP280;71899;51.992;8.648;2024-01-06T21:28:00;100085.31;;;2.70
82297;BMP280;71899;51.992;8.648;2024-01-06T21:30:25;100088.81;;;2.41
82297;BMP280;71899;51.992;8.648;2024-01-06T21:32:51;100075.78;;;2.72
82297;BMP280;71899;51.992;8.648;2024-01-06T21:35:25;100082.06;;;2.89
82297;BMP280;71899;51.992;8.648;2024-01-06T21:37:50;100085.50;;;2.90
82297;BMP280;71899;51.992;8.648;2024-01-06T21:40:16;100083.38;;;2.76
82297;BMP280;71899;51.992;8.648;2024-01-06T21:42:41;100096.47;;;2.70
82297;BMP280;71899;51.992;8.648;2024-01-06T21:45:06;100095.75;;;2.67
82297;BMP280;71899;51.992;8.648;2024-01-06T21:47:32;100098.03;;;3.00
82297;BMP280;71899;51.992;8.648;2024-01-06T21:49:57;100098.31;;;2.67
82297;BMP280;71899;51.992;8.648;2024-01-06T21:52:23;100106.16;;;2.64
82297;BMP280;71899;51.992;8.648;2024-01-06T21:54:48;100103.59;;;2.64
82297;BMP280;71899;51.992;8.648;2024-01-06T21:57:13;100099.38;;;2.86
82297;BMP280;71899;51.992;8.648;2024-01-06T21:59:39;100102.81;;;2.86
82297;BMP280;71899;51.992;8.648;2024-01-06T22:02:05;100101.81;;;3.17
82297;BMP280;71899;51.992;8.648;2024-01-06T22:04:30;100105.44;;;3.11
82297;BMP280;71899;51.992;8.648;2024-01-06T22:06:56;100117.53;;;2.84
82297;BMP280;71899;51.992;8.648;2024-01-06T22:09:21;100112.25;;;2.87
82297;BMP280;71899;51.992;8.648;2024-01-06T22:11:47;100111.66;;;2.79
82297;BMP280;71899;51.992;8.648;2024-01-06T22:14:14;100115.09;;;2.80
82297;BMP280;71899;51.992;8.648;2024-01-06T22:16:39;100121.91;;;3.07
82297;BMP280;71899;51.992;8.648;2024-01-06T22:19:05;100121.84;;;2.84
82297;BMP280;71899;51.992;8.648;2024-01-06T22:21:30;100122.72;;;2.83
82297;BMP280;71899;51.992;8.648;2024-01-06T22:23:56;100120.03;;;2.86
82297;BMP280;71899;51.992;8.648;2024-01-06T22:26:23;100131.28;;;2.85
82297;BMP280;71899;51.992;8.648;2024-01-06T22:28:48;100141.09;;;2.74
82297;BMP280;71899;51.992;8.648;2024-01-06T22:31:15;100138.81;;;2.91
82297;BMP280;71899;51.992;8.648;2024-01-06T22:33:41;100142.19;;;2.93
82297;BMP280;71899;51.992;8.648;2024-01-06T22:36:13;100141.31;;;2.94
82297;BMP280;71899;51.992;8.648;2024-01-06T22:38:39;100143.63;;;2.75
82297;BMP280;71899;51.992;8.648;2024-01-06T22:41:06;100150.91;;;2.63
82297;BMP280;71899;51.992;8.648;2024-01-06T22:43:31;100156.22;;;2.58
82297;BMP280;71899;51.992;8.648;2024-01-06T22:45:57;100160.84;;;2.75
82297;BMP280;71899;51.992;8.648;2024-01-06T22:48:22;100157.25;;;2.80
82297;BMP280;71899;51.992;8.648;2024-01-06T22:50:48;100160.09;;;2.71
82297;BMP280;71899;51.992;8.648;2024-01-06T22:53:13;100157.47;;;2.73
82297;BMP280;71899;51.992;8.648;2024-01-06T22:55:38;100160.09;;;2.71
82297;BMP280;71899;51.992;8.648;2024-01-06T22:58:03;100161.19;;;2.64
82297;BMP280;71899;51.992;8.648;2024-01-06T23:00:29;100164.38;;;2.44
82297;BMP280;71899;51.992;8.648;2024-01-06T23:03:01;100161.09;;;2.39
82297;BMP280;71899;51.992;8.648;2024-01-06T23:05:27;100162.13;;;2.62
82297;BMP280;71899;51.992;8.648;2024-01-06T23:07:53;100160.84;;;2.75
82297;BMP280;71899;51.992;8.648;2024-01-06T23:10:19;100174.41;;;2.26
82297;BMP280;71899;51.992;8.648;2024-01-06T23:12:45;100178.38;;;2.36
82297;BMP280;71899;51.992;8.648;2024-01-06T23:15:10;100180.97;;;2.36
82297;BMP280;71899;51.992;8.648;2024-01-06T23:17:36;100189.56;;;2.36
82297;BMP280;71899;51.992;8.648;2024-01-06T23:20:01;100182.97;;;2.26
82297;BMP280;71899;51.992;8.648;2024-01-06T23:22:27;100185.16;;;2.40
82297;BMP280;71899;51.992;8.648;2024-01-06T23:24:52;100181.25;;;2.82
82297;BMP280;71899;51.992;8.648;2024-01-06T23:27:17;100186.22;;;2.61
82297;BMP280;71899;51.992;8.648;2024-01-06T23:29:43;100196.06;;;2.77
82297;BMP280;71899;51.992;8.648;2024-01-06T23:32:08;100198.56;;;2.51
82297;BMP280;71899;51.992;8.648;2024-01-06T23:34:33;100198.78;;;2.45
82297;BMP280;71899;51.992;8.648;2024-01-06T23:36:59;100205.03;;;2.36
82297;BMP280;71899;51.992;8.648;2024-01-06T23:39:24;100201.06;;;2.25
82297;BMP280;71899;51.992;8.648;2024-01-06T23:41:50;100200.50;;;2.44
82297;BMP280;71899;51.992;8.648;2024-01-06T23:44:15;100199.81;;;2.67
82297;BMP280;71899;51.992;8.648;2024-01-06T23:46:41;100202.34;;;2.39
82297;BMP280;71899;51.992;8.648;2024-01-06T23:49:07;100208.59;;;2.32
82297;BMP280;71899;51.992;8.648;2024-01-06T23:51:32;100214.22;;;2.16
82297;BMP280;71899;51.992;8.648;2024-01-06T23:53:58;100221.69;;;2.25
82297;BMP280;71899;51.992;8.648;2024-01-06T23:56:23;100220.06;;;2.22
82297;BMP280;71899;51.992;8.648;2024-01-06T23:58:48;100214.44;;;2.08
